sensor_id;sensor_type;location;lat;lon;timestamp;P1;durP1;ratioP1;P2;durP2;ratioP2
33491;SDS011;20010;51.488;7.232;2023-07-20T00:01:50;7.90;;;7.32;;
33491;SDS011;20010;51.488;7.232;2023-07-20T00:04:17;9.68;;;7.75;;
33491;SDS011;20010;51.488;7.232;2023-07-20T00:06:44;8.35;;;7.78;;
33491;SDS011;20010;51.488;7.232;2023-07-20T00:09:11;8.57;;;7.75;;
33491;SDS011;20010;51.488;7.232;2023-07-20T00:11:38;8.45;;;7.80;;
33491;SDS011;20010;51.488;7.232;2023-07-20T00:14:05;9.68;;;8.88;;
33491;SDS011;20010;51.488;7.232;2023-07-20T00:16:32;8.15;;;7.57;;
33491;SDS011;20010;51.488;7.232;2023-07-20T00:18:59;8.15;;;7.60;;
33491;SDS011;20010;51.488;7.232;2023-07-20T00:21:25;9.93;;;9.00;;
33491;SDS011;20010;51.488;7.232;2023-07-20T00:23:52;7.80;;;7.30;;
33491;SDS011;20010;51.488;7.232;2023-07-20T00:26:19;9.65;;;8.75;;
33491;SDS011;20010;51.488;7.232;2023-07-20T00:28:48;8.60;;;7.88;;
33491;SDS011;20010;51.488;7.232;2023-07-20T00:31:16;9.95;;;8.60;;
33491;SDS011;20010;51.488;7.232;2023-07-20T00:33:43;9.20;;;8.40;;
33491;SDS011;20010;51.488;7.232;2023-07-20T00:36:09;9.38;;;8.57;;
33491;SDS011;20010;51.488;7.232;2023-07-20T00:38:36;8.20;;;7.70;;
33491;SDS011;20010;51.488;7.232;2023-07-20T00:41:03;8.55;;;7.85;;
33491;SDS011;20010;51.488;7.232;2023-07-20T00:43:29;8.90;;;8.25;;
33491;SDS011;20010;51.488;7.232;2023-07-20T00:45:56;8.77;;;7.97;;
33491;SDS011;20010;51.488;7.232;2023-07-20T00:48:23;9.50;;;8.65;;
33491;SDS011;20010;51.488;7.232;2023-07-20T00:50:49;9.30;;;8.40;;
33491;SDS011;20010;51.488;7.232;2023-07-20T00:53:16;11.55;;;8.60;;
33491;SDS011;20010;51.488;7.232;2023-07-20T00:55:43;8.52;;;7.72;;
33491;SDS011;20010;51.488;7.232;2023-07-20T00:58:10;10.73;;;9.73;;
33491;SDS011;20010;51.488;7.232;2023-07-20T01:00:37;9.27;;;8.45;;
33491;SDS011;20010;51.488;7.232;2023-07-20T01:03:04;9.68;;;8.68;;
33491;SDS011;20010;51.488;7.232;2023-07-20T01:05:36;9.55;;;8.75;;
33491;SDS011;20010;51.488;7.232;2023-07-20T01:11:16;9.85;;;8.98;;
33491;SDS011;20010;51.488;7.232;2023-07-20T01:13:47;10.57;;;9.18;;
33491;SDS011;20010;51.488;7.232;2023-07-20T01:16:14;9.35;;;8.45;;
33491;SDS011;20010;51.488;7.232;2023-07-20T01:18:41;9.40;;;8.68;;
33491;SDS011;20010;51.488;7.232;2023-07-20T01:21:09;10.95;;;8.93;;
33491;SDS011;20010;51.488;7.232;2023-07-20T01:29:17;9.60;;;8.37;;
33491;SDS011;20010;51.488;7.232;2023-07-20T01:31:51;10.82;;;9.73;;
33491;SDS011;20010;51.488;7.232;2023-07-20T01:34:20;9.60;;;8.77;;
33491;SDS011;20010;51.488;7.232;2023-07-20T01:36:49;11.43;;;10.07;;
33491;SDS011;20010;51.488;7.232;2023-07-20T01:39:17;10.55;;;9.55;;
33491;SDS011;20010;51.488;7.232;2023-07-20T01:41:44;11.00;;;10.00;;
33491;SDS011;20010;51.488;7.232;2023-07-20T01:44:12;10.48;;;9.75;;
33491;SDS011;20010;51.488;7.232;2023-07-20T01:46:39;11.30;;;10.15;;
33491;SDS011;20010;51.488;7.232;2023-07-20T01:49:05;11.05;;;9.95;;
33491;SDS011;20010;51.488;7.232;2023-07-20T01:51:32;12.05;;;10.18;;
33491;SDS011;20010;51.488;7.232;2023-07-20T01:53:59;11.38;;;10.38;;
33491;SDS011;20010;51.488;7.232;2023-07-20T01:56:26;12.10;;;10.88;;
33491;SDS011;20010;51.488;7.232;2023-07-20T01:58:52;10.85;;;9.85;;
33491;SDS011;20010;51.488;7.232;2023-07-20T02:01:19;10.98;;;9.93;;
33491;SDS011;20010;51.488;7.232;2023-07-20T02:03:45;11.13;;;10.32;;
33491;SDS011;20010;51.488;7.232;2023-07-20T02:06:12;11.38;;;10.45;;
33491;SDS011;20010;51.488;7.232;2023-07-20T02:08:39;15.00;;;11.43;;
33491;SDS011;20010;51.488;7.232;2023-07-20T02:11:05;12.68;;;10.57;;
33491;SDS011;20010;51.488;7.232;2023-07-20T02:13:32;11.40;;;10.30;;
33491;SDS011;20010;51.488;7.232;2023-07-20T02:15:59;11.45;;;10.52;;
33491;SDS011;20010;51.488;7.232;2023-07-20T02:18:26;12.50;;;11.30;;
33491;SDS011;20010;51.488;7.232;2023-07-20T02:20:53;11.27;;;10.25;;
33491;SDS011;20010;51.488;7.232;2023-07-20T02:23:20;12.18;;;11.07;;
33491;SDS011;20010;51.488;7.232;2023-07-20T02:25:47;11.23;;;10.40;;
33491;SDS011;20010;51.488;7.232;2023-07-20T02:28:13;11.10;;;10.10;;
33491;SDS011;20010;51.488;7.232;2023-07-20T02:30:41;10.85;;;9.80;;
33491;SDS011;20010;51.488;7.232;2023-07-20T02:33:08;11.18;;;10.15;;
33491;SDS011;20010;51.488;7.232;2023-07-20T02:35:34;12.35;;;11.13;;
33491;SDS011;20010;51.488;7.232;2023-07-20T02:38:01;12.57;;;11.27;;
33491;SDS011;20010;51.488;7.232;2023-07-20T02:40:28;13.32;;;12.05;;
33491;SDS011;20010;51.488;7.232;2023-07-20T02:42:54;12.88;;;11.70;;
33491;SDS011;20010;51.488;7.232;2023-07-20T02:45:21;12.30;;;10.95;;
33491;SDS011;20010;51.488;7.232;2023-07-20T02:47:48;13.27;;;11.98;;
33491;SDS011;20010;51.488;7.232;2023-07-20T02:50:14;14.43;;;13.20;;
33491;SDS011;20010;51.488;7.232;2023-07-20T02:52:41;18.55;;;13.68;;
33491;SDS011;20010;51.488;7.232;2023-07-20T02:55:08;17.35;;;13.85;;
33491;SDS011;20010;51.488;7.232;2023-07-20T02:57:34;16.48;;;14.98;;
33491;SDS011;20010;51.488;7.232;2023-07-20T03:00:02;14.98;;;13.57;;
33491;SDS011;20010;51.488;7.232;2023-07-20T03:02:31;16.00;;;14.60;;
33491;SDS011;20010;51.488;7.232;2023-07-20T03:04:58;15.25;;;13.75;;
33491;SDS011;20010;51.488;7.232;2023-07-20T03:07:27;15.40;;;14.00;;
33491;SDS011;20010;51.488;7.232;2023-07-20T03:09:54;16.48;;;14.90;;
33491;SDS011;20010;51.488;7.232;2023-07-20T03:12:21;15.90;;;14.32;;
33491;SDS011;20010;51.488;7.232;2023-07-20T03:14:48;17.85;;;15.95;;
33491;SDS011;20010;51.488;7.232;2023-07-20T03:17:14;17.27;;;15.70;;
33491;SDS011;20010;51.488;7.232;2023-07-20T03:19:41;16.80;;;14.93;;
33491;SDS011;20010;51.488;7.232;2023-07-20T03:22:09;16.33;;;14.82;;
33491;SDS011;20010;51.488;7.232;2023-07-20T03:24:36;17.98;;;15.32;;
33491;SDS011;20010;51.488;7.232;2023-07-20T03:27:02;16.75;;;15.25;;
33491;SDS011;20010;51.488;7.232;2023-07-20T03:29:30;18.38;;;16.45;;
33491;SDS011;20010;51.488;7.232;2023-07-20T03:31:58;17.52;;;15.73;;
33491;SDS011;20010;51.488;7.232;2023-07-20T03:34:25;18.52;;;16.73;;
33491;SDS011;20010;51.488;7.232;2023-07-20T03:36:52;20.80;;;18.65;;
33491;SDS011;20010;51.488;7.232;2023-07-20T03:39:19;21.38;;;17.90;;
33491;SDS011;20010;51.488;7.232;2023-07-20T03:41:45;18.92;;;17.02;;
33491;SDS011;20010;51.488;7.232;2023-07-20T03:44:12;18.95;;;17.13;;
33491;SDS011;20010;51.488;7.232;2023-07-20T03:46:39;19.35;;;17.00;;
33491;SDS011;20010;51.488;7.232;2023-07-20T03:49:06;17.50;;;15.52;;
33491;SDS011;20010;51.488;7.232;2023-07-20T03:51:32;18.08;;;16.27;;
33491;SDS011;20010;51.488;7.232;2023-07-20T03:53:59;17.33;;;15.73;;
33491;SDS011;20010;51.488;7.232;2023-07-20T03:56:25;15.93;;;14.48;;
33491;SDS011;20010;51.488;7.232;2023-07-20T03:58:52;15.25;;;13.75;;
33491;SDS011;20010;51.488;7.232;2023-07-20T04:01:19;14.98;;;13.50;;
33491;SDS011;20010;51.488;7.232;2023-07-20T04:03:46;13.05;;;11.90;;
33491;SDS011;20010;51.488;7.232;2023-07-20T04:06:15;14.60;;;13.10;;
33491;SDS011;20010;51.488;7.232;2023-07-20T04:08:44;15.07;;;13.48;;
33491;SDS011;20010;51.488;7.232;2023-07-20T04:11:11;14.77;;;13.30;;
33491;SDS011;20010;51.488;7.232;2023-07-20T04:13:37;14.98;;;13.52;;
33491;SDS011;20010;51.488;7.232;2023-07-20T04:16:04;15.77;;;14.30;;
33491;SDS011;20010;51.488;7.232;2023-07-20T04:18:31;25.65;;;20.30;;
33491;SDS011;20010;51.488;7.232;2023-07-20T04:20:57;21.45;;;19.45;;
33491;SDS011;20010;51.488;7.232;2023-07-20T04:23:24;27.98;;;23.63;;
33491;SDS011;20010;51.488;7.232;2023-07-20T04:25:51;26.42;;;23.40;;
33491;SDS011;20010;51.488;7.232;2023-07-20T04:28:18;26.70;;;24.10;;
33491;SDS011;20010;51.488;7.232;2023-07-20T04:30:44;26.77;;;24.05;;
33491;SDS011;20010;51.488;7.232;2023-07-20T04:33:11;28.15;;;25.02;;
33491;SDS011;20010;51.488;7.232;2023-07-20T04:38:10;28.98;;;26.05;;
33491;SDS011;20010;51.488;7.232;2023-07-20T04:40:37;29.35;;;26.20;;
33491;SDS011;20010;51.488;7.232;2023-07-20T04:43:04;28.15;;;24.52;;
33491;SDS011;20010;51.488;7.232;2023-07-20T04:45:30;24.52;;;21.88;;
33491;SDS011;20010;51.488;7.232;2023-07-20T04:47:57;27.63;;;24.80;;
33491;SDS011;20010;51.488;7.232;2023-07-20T04:50:24;26.23;;;23.55;;
33491;SDS011;20010;51.488;7.232;2023-07-20T04:52:51;27.25;;;24.52;;
33491;SDS011;20010;51.488;7.232;2023-07-20T04:55:19;27.27;;;24.60;;
33491;SDS011;20010;51.488;7.232;2023-07-20T04:57:46;26.48;;;23.73;;
33491;SDS011;20010;51.488;7.232;2023-07-20T05:00:12;27.30;;;24.77;;
33491;SDS011;20010;51.488;7.232;2023-07-20T05:02:40;26.98;;;24.15;;
33491;SDS011;20010;51.488;7.232;2023-07-20T05:05:07;27.50;;;24.83;;
33491;SDS011;20010;51.488;7.232;2023-07-20T05:07:34;25.77;;;23.27;;
33491;SDS011;20010;51.488;7.232;2023-07-20T05:10:00;24.42;;;21.88;;
33491;SDS011;20010;51.488;7.232;2023-07-20T05:12:27;23.92;;;21.73;;
33491;SDS011;20010;51.488;7.232;2023-07-20T05:14:53;22.55;;;20.48;;
33491;SDS011;20010;51.488;7.232;2023-07-20T05:17:20;21.70;;;19.73;;
33491;SDS011;20010;51.488;7.232;2023-07-20T05:19:46;22.52;;;20.45;;
33491;SDS011;20010;51.488;7.232;2023-07-20T05:22:13;20.58;;;18.92;;
33491;SDS011;20010;51.488;7.232;2023-07-20T05:24:40;19.92;;;17.88;;
33491;SDS011;20010;51.488;7.232;2023-07-20T05:27:07;21.38;;;19.50;;
33491;SDS011;20010;51.488;7.232;2023-07-20T05:29:33;17.90;;;16.50;;
33491;SDS011;20010;51.488;7.232;2023-07-20T05:32:00;16.95;;;15.55;;
33491;SDS011;20010;51.488;7.232;2023-07-20T05:34:26;17.05;;;15.52;;
33491;SDS011;20010;51.488;7.232;2023-07-20T05:36:53;14.90;;;13.60;;
33491;SDS011;20010;51.488;7.232;2023-07-20T05:39:20;16.15;;;14.77;;
33491;SDS011;20010;51.488;7.232;2023-07-20T05:41:46;17.10;;;15.45;;
33491;SDS011;20010;51.488;7.232;2023-07-20T05:44:13;14.02;;;12.93;;
33491;SDS011;20010;51.488;7.232;2023-07-20T05:46:40;13.93;;;12.93;;
33491;SDS011;20010;51.488;7.232;2023-07-20T05:49:20;13.73;;;12.73;;
33491;SDS011;20010;51.488;7.232;2023-07-20T05:51:47;14.55;;;13.35;;
33491;SDS011;20010;51.488;7.232;2023-07-20T05:54:14;15.35;;;14.15;;
33491;SDS011;20010;51.488;7.232;2023-07-20T05:56:40;13.23;;;12.20;;
33491;SDS011;20010;51.488;7.232;2023-07-20T05:59:07;13.05;;;12.15;;
33491;SDS011;20010;51.488;7.232;2023-07-20T06:01:34;14.43;;;13.32;;
33491;SDS011;20010;51.488;7.232;2023-07-20T06:04:00;22.95;;;14.75;;
33491;SDS011;20010;51.488;7.232;2023-07-20T06:06:27;19.85;;;18.08;;
33491;SDS011;20010;51.488;7.232;2023-07-20T06:08:54;18.27;;;16.65;;
33491;SDS011;20010;51.488;7.232;2023-07-20T06:11:20;15.10;;;13.95;;
33491;SDS011;20010;51.488;7.232;2023-07-20T06:13:47;16.48;;;15.07;;
33491;SDS011;20010;51.488;7.232;2023-07-20T06:16:13;13.73;;;12.50;;
33491;SDS011;20010;51.488;7.232;2023-07-20T06:18:40;14.98;;;13.60;;
33491;SDS011;20010;51.488;7.232;2023-07-20T06:21:06;15.70;;;14.32;;
33491;SDS011;20010;51.488;7.232;2023-07-20T06:23:33;16.17;;;14.77;;
33491;SDS011;20010;51.488;7.232;2023-07-20T06:26:00;15.77;;;14.57;;
33491;SDS011;20010;51.488;7.232;2023-07-20T06:28:26;16.98;;;15.68;;
33491;SDS011;20010;51.488;7.232;2023-07-20T06:30:58;16.50;;;15.30;;
33491;SDS011;20010;51.488;7.232;2023-07-20T06:33:28;19.50;;;18.00;;
33491;SDS011;20010;51.488;7.232;2023-07-20T06:35:55;17.85;;;16.55;;
33491;SDS011;20010;51.488;7.232;2023-07-20T06:38:23;16.02;;;14.73;;
33491;SDS011;20010;51.488;7.232;2023-07-20T06:40:53;16.50;;;15.30;;
33491;SDS011;20010;51.488;7.232;2023-07-20T06:43:19;15.93;;;14.73;;
33491;SDS011;20010;51.488;7.232;2023-07-20T06:45:51;16.48;;;15.27;;
33491;SDS011;20010;51.488;7.232;2023-07-20T06:48:21;13.73;;;12.60;;
33491;SDS011;20010;51.488;7.232;2023-07-20T06:50:48;12.57;;;11.43;;
33491;SDS011;20010;51.488;7.232;2023-07-20T06:53:15;12.98;;;11.98;;
33491;SDS011;20010;51.488;7.232;2023-07-20T06:55:41;12.32;;;11.43;;
33491;SDS011;20010;51.488;7.232;2023-07-20T06:58:09;13.02;;;12.13;;
33491;SDS011;20010;51.488;7.232;2023-07-20T07:00:36;11.85;;;11.05;;
33491;SDS011;20010;51.488;7.232;2023-07-20T07:03:02;12.07;;;11.20;;
33491;SDS011;20010;51.488;7.232;2023-07-20T07:05:29;14.10;;;13.20;;
33491;SDS011;20010;51.488;7.232;2023-07-20T07:07:58;12.70;;;11.80;;
33491;SDS011;20010;51.488;7.232;2023-07-20T07:10:25;12.98;;;11.98;;
33491;SDS011;20010;51.488;7.232;2023-07-20T07:12:52;13.90;;;12.90;;
33491;SDS011;20010;51.488;7.232;2023-07-20T07:15:18;13.75;;;12.75;;
33491;SDS011;20010;51.488;7.232;2023-07-20T07:17:45;14.40;;;13.15;;
33491;SDS011;20010;51.488;7.232;2023-07-20T07:20:12;14.52;;;13.43;;
33491;SDS011;20010;51.488;7.232;2023-07-20T07:22:46;14.88;;;13.77;;
33491;SDS011;20010;51.488;7.232;2023-07-20T07:25:13;14.07;;;12.98;;
33491;SDS011;20010;51.488;7.232;2023-07-20T07:27:48;13.10;;;12.07;;
33491;SDS011;20010;51.488;7.232;2023-07-20T07:30:14;15.02;;;13.82;;
33491;SDS011;20010;51.488;7.232;2023-07-20T07:32:41;13.48;;;12.50;;
33491;SDS011;20010;51.488;7.232;2023-07-20T07:35:08;12.18;;;11.27;;
33491;SDS011;20010;51.488;7.232;2023-07-20T07:37:35;11.38;;;10.65;;
33491;SDS011;20010;51.488;7.232;2023-07-20T07:40:22;10.75;;;10.02;;
33491;SDS011;20010;51.488;7.232;2023-07-20T07:42:49;9.38;;;8.75;;
33491;SDS011;20010;51.488;7.232;2023-07-20T07:45:15;11.27;;;10.48;;
33491;SDS011;20010;51.488;7.232;2023-07-20T07:47:43;9.23;;;8.63;;
33491;SDS011;20010;51.488;7.232;2023-07-20T07:50:10;10.02;;;9.23;;
33491;SDS011;20010;51.488;7.232;2023-07-20T07:52:37;11.05;;;10.35;;
33491;SDS011;20010;51.488;7.232;2023-07-20T07:55:04;10.48;;;9.70;;
33491;SDS011;20010;51.488;7.232;2023-07-20T07:57:31;10.68;;;10.07;;
33491;SDS011;20010;51.488;7.232;2023-07-20T07:59:57;11.25;;;10.35;;
33491;SDS011;20010;51.488;7.232;2023-07-20T08:02:24;10.82;;;10.13;;
33491;SDS011;20010;51.488;7.232;2023-07-20T08:04:51;11.75;;;10.95;;
33491;SDS011;20010;51.488;7.232;2023-07-20T08:07:18;11.80;;;10.90;;
33491;SDS011;20010;51.488;7.232;2023-07-20T08:09:45;10.80;;;10.00;;
33491;SDS011;20010;51.488;7.232;2023-07-20T08:12:12;10.05;;;9.45;;
33491;SDS011;20010;51.488;7.232;2023-07-20T08:14:39;11.20;;;10.27;;
33491;SDS011;20010;51.488;7.232;2023-07-20T08:17:06;7.90;;;7.40;;
33491;SDS011;20010;51.488;7.232;2023-07-20T08:19:33;8.48;;;7.78;;
33491;SDS011;20010;51.488;7.232;2023-07-20T08:22:01;9.35;;;8.57;;
33491;SDS011;20010;51.488;7.232;2023-07-20T08:24:28;10.57;;;9.63;;
33491;SDS011;20010;51.488;7.232;2023-07-20T08:26:55;12.00;;;11.00;;
33491;SDS011;20010;51.488;7.232;2023-07-20T08:29:21;9.65;;;8.95;;
33491;SDS011;20010;51.488;7.232;2023-07-20T08:31:48;8.00;;;7.60;;
33491;SDS011;20010;51.488;7.232;2023-07-20T08:34:15;7.45;;;7.05;;
33491;SDS011;20010;51.488;7.232;2023-07-20T08:36:57;6.28;;;5.97;;
33491;SDS011;20010;51.488;7.232;2023-07-20T08:39:24;7.25;;;6.75;;
33491;SDS011;20010;51.488;7.232;2023-07-20T08:41:51;8.95;;;8.30;;
33491;SDS011;20010;51.488;7.232;2023-07-20T08:44:20;9.32;;;8.70;;
33491;SDS011;20010;51.488;7.232;2023-07-20T08:46:48;9.15;;;8.65;;
33491;SDS011;20010;51.488;7.232;2023-07-20T08:49:16;9.07;;;8.57;;
33491;SDS011;20010;51.488;7.232;2023-07-20T08:51:45;9.27;;;8.77;;
33491;SDS011;20010;51.488;7.232;2023-07-20T08:54:12;9.00;;;8.27;;
33491;SDS011;20010;51.488;7.232;2023-07-20T08:56:39;8.35;;;7.95;;
33491;SDS011;20010;51.488;7.232;2023-07-20T08:59:07;8.68;;;7.97;;
33491;SDS011;20010;51.488;7.232;2023-07-20T09:01:35;10.38;;;7.75;;
33491;SDS011;20010;51.488;7.232;2023-07-20T09:04:02;7.25;;;6.85;;
33491;SDS011;20010;51.488;7.232;2023-07-20T09:06:29;8.20;;;7.70;;
33491;SDS011;20010;51.488;7.232;2023-07-20T09:08:57;7.43;;;7.10;;
33491;SDS011;20010;51.488;7.232;2023-07-20T09:11:24;7.50;;;7.10;;
33491;SDS011;20010;51.488;7.232;2023-07-20T09:14:04;6.30;;;6.00;;
33491;SDS011;20010;51.488;7.232;2023-07-20T09:16:32;7.75;;;7.25;;
33491;SDS011;20010;51.488;7.232;2023-07-20T09:18:58;7.20;;;6.90;;
33491;SDS011;20010;51.488;7.232;2023-07-20T09:21:29;8.82;;;8.32;;
33491;SDS011;20010;51.488;7.232;2023-07-20T09:23:58;7.68;;;6.93;;
33491;SDS011;20010;51.488;7.232;2023-07-20T09:26:25;7.10;;;6.70;;
33491;SDS011;20010;51.488;7.232;2023-07-20T09:28:54;7.18;;;6.78;;
33491;SDS011;20010;51.488;7.232;2023-07-20T09:31:22;6.80;;;6.40;;
33491;SDS011;20010;51.488;7.232;2023-07-20T09:33:49;7.00;;;6.68;;
33491;SDS011;20010;51.488;7.232;2023-07-20T09:36:21;6.10;;;5.80;;
33491;SDS011;20010;51.488;7.232;2023-07-20T09:39:08;7.88;;;7.38;;
33491;SDS011;20010;51.488;7.232;2023-07-20T09:41:41;7.00;;;6.70;;
33491;SDS011;20010;51.488;7.232;2023-07-20T09:44:11;8.20;;;7.50;;
33491;SDS011;20010;51.488;7.232;2023-07-20T09:46:47;8.48;;;7.97;;
33491;SDS011;20010;51.488;7.232;2023-07-20T09:49:17;7.65;;;7.25;;
33491;SDS011;20010;51.488;7.232;2023-07-20T09:51:47;7.20;;;6.80;;
33491;SDS011;20010;51.488;7.232;2023-07-20T09:54:15;7.03;;;6.63;;
33491;SDS011;20010;51.488;7.232;2023-07-20T09:56:42;6.53;;;6.13;;
33491;SDS011;20010;51.488;7.232;2023-07-20T09:59:09;6.32;;;5.93;;
33491;SDS011;20010;51.488;7.232;2023-07-20T10:01:36;6.55;;;6.25;;
33491;SDS011;20010;51.488;7.232;2023-07-20T10:04:04;6.90;;;6.50;;
33491;SDS011;20010;51.488;7.232;2023-07-20T10:06:33;6.20;;;5.90;;
33491;SDS011;20010;51.488;7.232;2023-07-20T10:09:03;6.68;;;6.38;;
33491;SDS011;20010;51.488;7.232;2023-07-20T10:11:30;6.47;;;6.25;;
33491;SDS011;20010;51.488;7.232;2023-07-20T10:13:58;7.03;;;6.50;;
33491;SDS011;20010;51.488;7.232;2023-07-20T10:16:29;7.00;;;6.65;;
33491;SDS011;20010;51.488;7.232;2023-07-20T10:19:11;6.90;;;6.40;;
33491;SDS011;20010;51.488;7.232;2023-07-20T10:21:46;6.57;;;6.18;;
33491;SDS011;20010;51.488;7.232;2023-07-20T10:24:21;6.60;;;6.20;;
33491;SDS011;20010;51.488;7.232;2023-07-20T10:26:49;6.47;;;6.18;;
33491;SDS011;20010;51.488;7.232;2023-07-20T10:29:16;6.50;;;6.20;;
33491;SDS011;20010;51.488;7.232;2023-07-20T10:31:43;6.55;;;6.25;;
33491;SDS011;20010;51.488;7.232;2023-07-20T10:34:10;5.90;;;5.60;;
33491;SDS011;20010;51.488;7.232;2023-07-20T10:36:45;6.60;;;6.30;;
33491;SDS011;20010;51.488;7.232;2023-07-20T10:39:22;6.43;;;6.13;;
33491;SDS011;20010;51.488;7.232;2023-07-20T10:42:06;6.50;;;6.05;;
33491;SDS011;20010;51.488;7.232;2023-07-20T10:44:34;6.15;;;5.75;;
33491;SDS011;20010;51.488;7.232;2023-07-20T10:47:08;6.32;;;5.93;;
33491;SDS011;20010;51.488;7.232;2023-07-20T10:52:36;6.05;;;5.75;;
33491;SDS011;20010;51.488;7.232;2023-07-20T10:55:15;5.97;;;5.68;;
33491;SDS011;20010;51.488;7.232;2023-07-20T10:57:42;5.78;;;5.47;;
33491;SDS011;20010;51.488;7.232;2023-07-20T11:00:12;5.30;;;5.10;;
33491;SDS011;20010;51.488;7.232;2023-07-20T11:07:57;6.45;;;5.90;;
33491;SDS011;20010;51.488;7.232;2023-07-20T11:10:24;5.30;;;5.10;;
33491;SDS011;20010;51.488;7.232;2023-07-20T11:16:03;5.20;;;5.00;;
33491;SDS011;20010;51.488;7.232;2023-07-20T11:18:32;5.45;;;5.25;;
33491;SDS011;20010;51.488;7.232;2023-07-20T11:21:00;5.07;;;4.88;;
33491;SDS011;20010;51.488;7.232;2023-07-20T11:23:27;5.40;;;5.20;;
33491;SDS011;20010;51.488;7.232;2023-07-20T11:25:55;5.53;;;5.32;;
33491;SDS011;20010;51.488;7.232;2023-07-20T11:28:22;5.70;;;5.50;;
33491;SDS011;20010;51.488;7.232;2023-07-20T11:30:51;5.40;;;5.20;;
33491;SDS011;20010;51.488;7.232;2023-07-20T11:33:20;5.35;;;5.10;;
33491;SDS011;20010;51.488;7.232;2023-07-20T11:35:48;5.10;;;4.90;;
33491;SDS011;20010;51.488;7.232;2023-07-20T11:38:17;5.23;;;4.93;;
33491;SDS011;20010;51.488;7.232;2023-07-20T11:40:44;5.25;;;5.05;;
33491;SDS011;20010;51.488;7.232;2023-07-20T11:43:11;5.72;;;5.53;;
33491;SDS011;20010;51.488;7.232;2023-07-20T11:45:42;5.50;;;5.30;;
33491;SDS011;20010;51.488;7.232;2023-07-20T11:48:14;5.65;;;5.30;;
33491;SDS011;20010;51.488;7.232;2023-07-20T11:50:41;5.38;;;5.00;;
33491;SDS011;20010;51.488;7.232;2023-07-20T11:53:08;5.00;;;4.80;;
33491;SDS011;20010;51.488;7.232;2023-07-20T11:55:35;5.20;;;5.00;;
33491;SDS011;20010;51.488;7.232;2023-07-20T11:58:06;4.95;;;4.65;;
33491;SDS011;20010;51.488;7.232;2023-07-20T12:02:59;5.32;;;5.10;;
33491;SDS011;20010;51.488;7.232;2023-07-20T12:05:27;5.28;;;5.07;;
33491;SDS011;20010;51.488;7.232;2023-07-20T12:07:54;5.35;;;5.05;;
33491;SDS011;20010;51.488;7.232;2023-07-20T12:10:27;5.05;;;4.65;;
33491;SDS011;20010;51.488;7.232;2023-07-20T12:12:54;4.88;;;4.68;;
33491;SDS011;20010;51.488;7.232;2023-07-20T12:15:27;5.00;;;4.80;;
33491;SDS011;20010;51.488;7.232;2023-07-20T12:17:56;5.07;;;4.88;;
33491;SDS011;20010;51.488;7.232;2023-07-20T12:20:25;5.35;;;5.15;;
33491;SDS011;20010;51.488;7.232;2023-07-20T12:23:05;6.03;;;5.63;;
33491;SDS011;20010;51.488;7.232;2023-07-20T12:28:12;5.40;;;5.20;;
33491;SDS011;20010;51.488;7.232;2023-07-20T12:30:38;5.90;;;5.60;;
33491;SDS011;20010;51.488;7.232;2023-07-20T12:33:06;5.40;;;5.20;;
33491;SDS011;20010;51.488;7.232;2023-07-20T12:35:33;6.00;;;5.70;;
33491;SDS011;20010;51.488;7.232;2023-07-20T12:38:00;5.90;;;5.60;;
33491;SDS011;20010;51.488;7.232;2023-07-20T12:40:26;5.55;;;5.32;;
33491;SDS011;20010;51.488;7.232;2023-07-20T12:42:53;5.90;;;5.70;;
33491;SDS011;20010;51.488;7.232;2023-07-20T12:45:20;6.22;;;5.82;;
33491;SDS011;20010;51.488;7.232;2023-07-20T12:47:46;6.78;;;6.47;;
33491;SDS011;20010;51.488;7.232;2023-07-20T12:50:14;6.65;;;6.35;;
33491;SDS011;20010;51.488;7.232;2023-07-20T12:52:41;6.25;;;5.95;;
33491;SDS011;20010;51.488;7.232;2023-07-20T12:55:08;6.05;;;5.85;;
33491;SDS011;20010;51.488;7.232;2023-07-20T12:57:35;6.45;;;6.15;;
33491;SDS011;20010;51.488;7.232;2023-07-20T13:00:03;5.82;;;5.55;;
33491;SDS011;20010;51.488;7.232;2023-07-20T13:02:32;5.60;;;5.40;;
33491;SDS011;20010;51.488;7.232;2023-07-20T13:04:59;6.97;;;6.57;;
33491;SDS011;20010;51.488;7.232;2023-07-20T13:07:30;5.00;;;4.80;;
33491;SDS011;20010;51.488;7.232;2023-07-20T13:10:04;6.70;;;6.22;;
33491;SDS011;20010;51.488;7.232;2023-07-20T13:12:32;5.68;;;5.38;;
33491;SDS011;20010;51.488;7.232;2023-07-20T13:15:00;6.00;;;5.70;;
33491;SDS011;20010;51.488;7.232;2023-07-20T13:17:27;5.57;;;5.32;;
33491;SDS011;20010;51.488;7.232;2023-07-20T13:19:54;5.50;;;5.20;;
33491;SDS011;20010;51.488;7.232;2023-07-20T13:22:21;5.85;;;5.50;;
33491;SDS011;20010;51.488;7.232;2023-07-20T13:24:49;6.10;;;5.70;;
33491;SDS011;20010;51.488;7.232;2023-07-20T13:27:17;5.85;;;5.45;;
33491;SDS011;20010;51.488;7.232;2023-07-20T13:29:45;5.40;;;5.20;;
33491;SDS011;20010;51.488;7.232;2023-07-20T13:32:14;5.93;;;5.53;;
33491;SDS011;20010;51.488;7.232;2023-07-20T13:34:45;6.22;;;5.93;;
33491;SDS011;20010;51.488;7.232;2023-07-20T13:37:14;5.90;;;5.60;;
33491;SDS011;20010;51.488;7.232;2023-07-20T13:39:42;6.38;;;5.95;;
33491;SDS011;20010;51.488;7.232;2023-07-20T13:42:10;6.40;;;6.00;;
33491;SDS011;20010;51.488;7.232;2023-07-20T13:44:38;6.07;;;5.78;;
33491;SDS011;20010;51.488;7.232;2023-07-20T13:47:05;5.40;;;5.20;;
33491;SDS011;20010;51.488;7.232;2023-07-20T13:49:35;5.90;;;5.70;;
33491;SDS011;20010;51.488;7.232;2023-07-20T13:52:12;5.60;;;5.40;;
33491;SDS011;20010;51.488;7.232;2023-07-20T13:54:41;6.00;;;5.70;;
33491;SDS011;20010;51.488;7.232;2023-07-20T13:57:11;5.13;;;4.90;;
33491;SDS011;20010;51.488;7.232;2023-07-20T13:59:37;6.65;;;6.20;;
33491;SDS011;20010;51.488;7.232;2023-07-20T14:02:04;5.70;;;5.30;;
33491;SDS011;20010;51.488;7.232;2023-07-20T14:04:34;5.45;;;5.25;;
33491;SDS011;20010;51.488;7.232;2023-07-20T14:07:00;5.47;;;5.28;;
33491;SDS011;20010;51.488;7.232;2023-07-20T14:09:27;5.40;;;5.20;;
33491;SDS011;20010;51.488;7.232;2023-07-20T14:11:54;5.22;;;5.03;;
33491;SDS011;20010;51.488;7.232;2023-07-20T14:14:23;5.25;;;4.97;;
33491;SDS011;20010;51.488;7.232;2023-07-20T14:16:50;6.22;;;5.72;;
33491;SDS011;20010;51.488;7.232;2023-07-20T14:19:17;5.65;;;5.35;;
33491;SDS011;20010;51.488;7.232;2023-07-20T14:21:43;5.40;;;5.10;;
33491;SDS011;20010;51.488;7.232;2023-07-20T14:24:10;5.50;;;5.20;;
33491;SDS011;20010;51.488;7.232;2023-07-20T14:26:37;5.68;;;5.45;;
33491;SDS011;20010;51.488;7.232;2023-07-20T14:29:05;5.10;;;4.80;;
33491;SDS011;20010;51.488;7.232;2023-07-20T14:31:31;5.65;;;5.25;;
33491;SDS011;20010;51.488;7.232;2023-07-20T14:33:58;5.10;;;4.90;;
33491;SDS011;20010;51.488;7.232;2023-07-20T14:36:25;5.55;;;5.25;;
33491;SDS011;20010;51.488;7.232;2023-07-20T14:38:52;5.63;;;5.13;;
33491;SDS011;20010;51.488;7.232;2023-07-20T14:41:19;5.53;;;5.20;;
33491;SDS011;20010;51.488;7.232;2023-07-20T14:43:46;5.43;;;5.07;;
33491;SDS011;20010;51.488;7.232;2023-07-20T14:46:13;5.38;;;5.15;;
33491;SDS011;20010;51.488;7.232;2023-07-20T14:48:40;5.35;;;5.15;;
33491;SDS011;20010;51.488;7.232;2023-07-20T14:51:06;5.78;;;5.40;;
33491;SDS011;20010;51.488;7.232;2023-07-20T14:53:33;5.75;;;5.50;;
33491;SDS011;20010;51.488;7.232;2023-07-20T14:56:02;6.05;;;5.60;;
33491;SDS011;20010;51.488;7.232;2023-07-20T14:58:29;5.80;;;5.50;;
33491;SDS011;20010;51.488;7.232;2023-07-20T15:03:26;6.70;;;6.22;;
33491;SDS011;20010;51.488;7.232;2023-07-20T15:05:53;6.15;;;5.85;;
33491;SDS011;20010;51.488;7.232;2023-07-20T15:08:19;6.20;;;5.80;;
33491;SDS011;20010;51.488;7.232;2023-07-20T15:10:46;6.82;;;6.53;;